sensor_id;sensor_type;location;lat;lon;timestamp;P1;durP1;ratioP1;P2;durP2;ratioP2
49858;SDS011;35756;52.346;13.622;2023-05-16T00:00:56;10.20;;;6.85;;
49858;SDS011;35756;52.346;13.622;2023-05-16T00:03:22;9.40;;;7.65;;
49858;SDS011;35756;52.346;13.622;2023-05-16T00:05:47;8.98;;;7.10;;
49858;SDS011;35756;52.346;13.622;2023-05-16T00:08:12;8.75;;;6.63;;
49858;SDS011;35756;52.346;13.622;2023-05-16T00:10:38;8.68;;;7.15;;
49858;SDS011;35756;52.346;13.622;2023-05-16T00:13:03;9.27;;;6.93;;
49858;SDS011;35756;52.346;13.622;2023-05-16T00:15:28;10.18;;;7.60;;
49858;SDS011;35756;52.346;13.622;2023-05-16T00:17:54;12.85;;;7.57;;
49858;SDS011;35756;52.346;13.622;2023-05-16T00:20:23;11.63;;;7.05;;
49858;SDS011;35756;52.346;13.622;2023-05-16T00:22:52;11.13;;;7.70;;
49858;SDS011;35756;52.346;13.622;2023-05-16T00:25:17;8.88;;;7.28;;
49858;SDS011;35756;52.346;13.622;2023-05-16T00:27:42;10.07;;;7.45;;
49858;SDS011;35756;52.346;13.622;2023-05-16T00:30:08;10.27;;;7.25;;
49858;SDS011;35756;52.346;13.622;2023-05-16T00:32:34;9.77;;;7.93;;
49858;SDS011;35756;52.346;13.622;2023-05-16T00:35:00;9.52;;;7.43;;
49858;SDS011;35756;52.346;13.622;2023-05-16T00:37:25;10.38;;;7.88;;
49858;SDS011;35756;52.346;13.622;2023-05-16T00:39:50;11.50;;;7.45;;
49858;SDS011;35756;52.346;13.622;2023-05-16T00:42:17;10.68;;;8.35;;
49858;SDS011;35756;52.346;13.622;2023-05-16T00:44:43;11.43;;;7.72;;
49858;SDS011;35756;52.346;13.622;2023-05-16T00:47:08;9.35;;;8.10;;
49858;SDS011;35756;52.346;13.622;2023-05-16T00:49:34;11.90;;;8.73;;
49858;SDS011;35756;52.346;13.622;2023-05-16T00:51:59;10.43;;;7.63;;
49858;SDS011;35756;52.346;13.622;2023-05-16T00:54:25;14.70;;;9.60;;
49858;SDS011;35756;52.346;13.622;2023-05-16T00:56:53;11.32;;;7.95;;
49858;SDS011;35756;52.346;13.622;2023-05-16T00:59:19;11.10;;;8.88;;
49858;SDS011;35756;52.346;13.622;2023-05-16T01:01:45;15.23;;;9.27;;
49858;SDS011;35756;52.346;13.622;2023-05-16T01:04:11;12.38;;;8.93;;
49858;SDS011;35756;52.346;13.622;2023-05-16T01:06:36;13.63;;;8.88;;
49858;SDS011;35756;52.346;13.622;2023-05-16T01:09:01;10.75;;;8.68;;
49858;SDS011;35756;52.346;13.622;2023-05-16T01:11:31;9.93;;;8.40;;
49858;SDS011;35756;52.346;13.622;2023-05-16T01:14:11;12.02;;;9.52;;
49858;SDS011;35756;52.346;13.622;2023-05-16T01:16:47;13.00;;;9.15;;
49858;SDS011;35756;52.346;13.622;2023-05-16T01:19:30;14.75;;;9.77;;
49858;SDS011;35756;52.346;13.622;2023-05-16T01:22:06;14.27;;;10.18;;
49858;SDS011;35756;52.346;13.622;2023-05-16T01:24:52;12.27;;;9.82;;
49858;SDS011;35756;52.346;13.622;2023-05-16T01:27:26;15.60;;;10.52;;
49858;SDS011;35756;52.346;13.622;2023-05-16T01:29:55;14.77;;;11.15;;
49858;SDS011;35756;52.346;13.622;2023-05-16T01:32:20;15.70;;;10.48;;
49858;SDS011;35756;52.346;13.622;2023-05-16T01:34:46;16.27;;;11.40;;
49858;SDS011;35756;52.346;13.622;2023-05-16T01:37:14;15.27;;;10.80;;
49858;SDS011;35756;52.346;13.622;2023-05-16T01:39:51;16.52;;;11.40;;
49858;SDS011;35756;52.346;13.622;2023-05-16T01:42:21;18.38;;;11.50;;
49858;SDS011;35756;52.346;13.622;2023-05-16T01:47:46;17.13;;;11.68;;
49858;SDS011;35756;52.346;13.622;2023-05-16T01:50:17;19.52;;;12.80;;
49858;SDS011;35756;52.346;13.622;2023-05-16T01:55:36;16.95;;;11.88;;
49858;SDS011;35756;52.346;13.622;2023-05-16T01:58:05;16.35;;;11.70;;
49858;SDS011;35756;52.346;13.622;2023-05-16T02:00:31;17.63;;;13.00;;
49858;SDS011;35756;52.346;13.622;2023-05-16T02:02:57;20.05;;;12.65;;
49858;SDS011;35756;52.346;13.622;2023-05-16T02:05:22;20.27;;;13.27;;
49858;SDS011;35756;52.346;13.622;2023-05-16T02:07:47;21.88;;;12.93;;
49858;SDS011;35756;52.346;13.622;2023-05-16T02:10:13;22.48;;;13.60;;
49858;SDS011;35756;52.346;13.622;2023-05-16T02:12:38;18.15;;;12.32;;
49858;SDS011;35756;52.346;13.622;2023-05-16T02:15:04;20.63;;;13.45;;
49858;SDS011;35756;52.346;13.622;2023-05-16T02:17:29;21.77;;;13.30;;
49858;SDS011;35756;52.346;13.622;2023-05-16T02:19:55;21.42;;;13.90;;
49858;SDS011;35756;52.346;13.622;2023-05-16T02:22:20;21.50;;;13.43;;
49858;SDS011;35756;52.346;13.622;2023-05-16T02:24:45;16.25;;;12.23;;
49858;SDS011;35756;52.346;13.622;2023-05-16T02:27:10;18.75;;;13.05;;
49858;SDS011;35756;52.346;13.622;2023-05-16T02:29:36;19.55;;;13.73;;
49858;SDS011;35756;52.346;13.622;2023-05-16T02:32:01;19.80;;;12.18;;
49858;SDS011;35756;52.346;13.622;2023-05-16T02:34:26;16.23;;;12.25;;
49858;SDS011;35756;52.346;13.622;2023-05-16T02:36:52;17.10;;;11.82;;
49858;SDS011;35756;52.346;13.622;2023-05-16T02:39:17;20.33;;;12.30;;
49858;SDS011;35756;52.346;13.622;2023-05-16T02:41:42;17.73;;;12.98;;
49858;SDS011;35756;52.346;13.622;2023-05-16T02:44:08;18.42;;;11.88;;
49858;SDS011;35756;52.346;13.622;2023-05-16T02:46:33;17.30;;;12.10;;
49858;SDS011;35756;52.346;13.622;2023-05-16T02:48:58;15.73;;;11.27;;
49858;SDS011;35756;52.346;13.622;2023-05-16T02:51:25;18.63;;;12.00;;
49858;SDS011;35756;52.346;13.622;2023-05-16T02:53:51;19.50;;;12.50;;
49858;SDS011;35756;52.346;13.622;2023-05-16T02:56:17;16.13;;;11.70;;
49858;SDS011;35756;52.346;13.622;2023-05-16T02:58:46;15.88;;;11.70;;
49858;SDS011;35756;52.346;13.622;2023-05-16T03:01:15;15.63;;;10.40;;
49858;SDS011;35756;52.346;13.622;2023-05-16T03:03:40;16.98;;;10.98;;
49858;SDS011;35756;52.346;13.622;2023-05-16T03:06:06;17.60;;;11.52;;
49858;SDS011;35756;52.346;13.622;2023-05-16T03:08:31;15.57;;;11.07;;
49858;SDS011;35756;52.346;13.622;2023-05-16T03:10:57;22.00;;;10.88;;
49858;SDS011;35756;52.346;13.622;2023-05-16T03:13:22;13.73;;;10.02;;
49858;SDS011;35756;52.346;13.622;2023-05-16T03:15:47;15.35;;;11.30;;
49858;SDS011;35756;52.346;13.622;2023-05-16T03:18:13;15.05;;;10.45;;
49858;SDS011;35756;52.346;13.622;2023-05-16T03:20:38;16.25;;;11.48;;
49858;SDS011;35756;52.346;13.622;2023-05-16T03:23:04;20.52;;;11.18;;
49858;SDS011;35756;52.346;13.622;2023-05-16T03:25:33;17.58;;;11.55;;
49858;SDS011;35756;52.346;13.622;2023-05-16T03:27:58;15.73;;;11.63;;
49858;SDS011;35756;52.346;13.622;2023-05-16T03:30:24;19.15;;;10.80;;
49858;SDS011;35756;52.346;13.622;2023-05-16T03:32:50;13.90;;;10.90;;
49858;SDS011;35756;52.346;13.622;2023-05-16T03:35:16;19.75;;;11.68;;
49858;SDS011;35756;52.346;13.622;2023-05-16T03:37:41;18.95;;;11.38;;
49858;SDS011;35756;52.346;13.622;2023-05-16T03:40:07;19.88;;;11.75;;
49858;SDS011;35756;52.346;13.622;2023-05-16T03:42:32;19.58;;;12.60;;
49858;SDS011;35756;52.346;13.622;2023-05-16T03:44:58;16.52;;;11.65;;
49858;SDS011;35756;52.346;13.622;2023-05-16T03:47:23;14.85;;;11.57;;
49858;SDS011;35756;52.346;13.622;2023-05-16T03:49:49;20.77;;;12.05;;
49858;SDS011;35756;52.346;13.622;2023-05-16T03:52:14;20.90;;;12.43;;
49858;SDS011;35756;52.346;13.622;2023-05-16T03:54:39;22.42;;;12.45;;
49858;SDS011;35756;52.346;13.622;2023-05-16T03:57:04;18.58;;;11.13;;
49858;SDS011;35756;52.346;13.622;2023-05-16T03:59:30;18.20;;;11.65;;
49858;SDS011;35756;52.346;13.622;2023-05-16T04:01:55;16.38;;;11.60;;
49858;SDS011;35756;52.346;13.622;2023-05-16T04:04:21;24.48;;;12.68;;
49858;SDS011;35756;52.346;13.622;2023-05-16T04:06:46;17.95;;;11.68;;
49858;SDS011;35756;52.346;13.622;2023-05-16T04:09:11;16.67;;;11.93;;
49858;SDS011;35756;52.346;13.622;2023-05-16T04:11:37;21.40;;;13.30;;
49858;SDS011;35756;52.346;13.622;2023-05-16T04:14:02;19.50;;;12.68;;
49858;SDS011;35756;52.346;13.622;2023-05-16T04:16:28;20.00;;;13.05;;
49858;SDS011;35756;52.346;13.622;2023-05-16T04:18:53;17.63;;;12.25;;
49858;SDS011;35756;52.346;13.622;2023-05-16T04:21:20;20.27;;;13.43;;
49858;SDS011;35756;52.346;13.622;2023-05-16T04:23:45;17.30;;;12.57;;
49858;SDS011;35756;52.346;13.622;2023-05-16T04:26:10;18.63;;;12.35;;
49858;SDS011;35756;52.346;13.622;2023-05-16T04:28:36;21.55;;;12.48;;
49858;SDS011;35756;52.346;13.622;2023-05-16T04:31:02;19.98;;;12.95;;
49858;SDS011;35756;52.346;13.622;2023-05-16T04:33:27;18.80;;;12.07;;
49858;SDS011;35756;52.346;13.622;2023-05-16T04:35:52;19.55;;;12.95;;
49858;SDS011;35756;52.346;13.622;2023-05-16T04:38:18;25.08;;;12.98;;
49858;SDS011;35756;52.346;13.622;2023-05-16T04:40:43;16.83;;;12.25;;
49858;SDS011;35756;52.346;13.622;2023-05-16T04:43:09;18.95;;;13.18;;
49858;SDS011;35756;52.346;13.622;2023-05-16T04:45:35;22.02;;;13.15;;
49858;SDS011;35756;52.346;13.622;2023-05-16T04:48:00;19.48;;;12.68;;
49858;SDS011;35756;52.346;13.622;2023-05-16T04:50:25;20.40;;;12.32;;
49858;SDS011;35756;52.346;13.622;2023-05-16T04:52:51;18.23;;;12.30;;
49858;SDS011;35756;52.346;13.622;2023-05-16T04:55:16;17.90;;;12.35;;
49858;SDS011;35756;52.346;13.622;2023-05-16T04:57:41;18.55;;;12.13;;
49858;SDS011;35756;52.346;13.622;2023-05-16T05:00:07;20.70;;;12.80;;
49858;SDS011;35756;52.346;13.622;2023-05-16T05:02:35;19.60;;;12.20;;
49858;SDS011;35756;52.346;13.622;2023-05-16T05:05:01;17.95;;;11.68;;
49858;SDS011;35756;52.346;13.622;2023-05-16T05:07:26;19.17;;;12.43;;
49858;SDS011;35756;52.346;13.622;2023-05-16T05:09:53;20.17;;;12.02;;
49858;SDS011;35756;52.346;13.622;2023-05-16T05:12:19;18.75;;;11.57;;
49858;SDS011;35756;52.346;13.622;2023-05-16T05:14:45;19.13;;;11.73;;
49858;SDS011;35756;52.346;13.622;2023-05-16T05:17:10;17.70;;;11.43;;
49858;SDS011;35756;52.346;13.622;2023-05-16T05:19:35;20.30;;;11.85;;
49858;SDS011;35756;52.346;13.622;2023-05-16T05:22:01;20.60;;;12.23;;
49858;SDS011;35756;52.346;13.622;2023-05-16T05:24:26;16.55;;;11.15;;
49858;SDS011;35756;52.346;13.622;2023-05-16T05:26:51;18.80;;;11.30;;
49858;SDS011;35756;52.346;13.622;2023-05-16T05:29:17;19.35;;;11.90;;
49858;SDS011;35756;52.346;13.622;2023-05-16T05:31:42;19.38;;;11.20;;
49858;SDS011;35756;52.346;13.622;2023-05-16T05:34:07;16.42;;;11.77;;
49858;SDS011;35756;52.346;13.622;2023-05-16T05:36:33;15.82;;;11.13;;
49858;SDS011;35756;52.346;13.622;2023-05-16T05:38:58;16.60;;;10.63;;
49858;SDS011;35756;52.346;13.622;2023-05-16T05:41:23;16.33;;;11.98;;
49858;SDS011;35756;52.346;13.622;2023-05-16T05:43:48;20.40;;;12.07;;
49858;SDS011;35756;52.346;13.622;2023-05-16T05:46:14;18.75;;;12.05;;
49858;SDS011;35756;52.346;13.622;2023-05-16T05:48:41;17.35;;;11.70;;
49858;SDS011;35756;52.346;13.622;2023-05-16T05:51:06;17.27;;;11.98;;
49858;SDS011;35756;52.346;13.622;2023-05-16T05:53:31;18.13;;;12.00;;
49858;SDS011;35756;52.346;13.622;2023-05-16T05:55:57;17.40;;;11.63;;
49858;SDS011;35756;52.346;13.622;2023-05-16T05:58:22;19.13;;;11.48;;
49858;SDS011;35756;52.346;13.622;2023-05-16T06:00:47;18.27;;;11.45;;
49858;SDS011;35756;52.346;13.622;2023-05-16T06:03:12;18.73;;;11.90;;
49858;SDS011;35756;52.346;13.622;2023-05-16T06:05:38;17.80;;;11.93;;
49858;SDS011;35756;52.346;13.622;2023-05-16T06:08:03;20.50;;;12.60;;
49858;SDS011;35756;52.346;13.622;2023-05-16T06:10:29;24.52;;;12.68;;
49858;SDS011;35756;52.346;13.622;2023-05-16T06:12:55;24.60;;;13.30;;
49858;SDS011;35756;52.346;13.622;2023-05-16T06:15:20;18.77;;;12.40;;
49858;SDS011;35756;52.346;13.622;2023-05-16T06:17:45;19.38;;;12.52;;
49858;SDS011;35756;52.346;13.622;2023-05-16T06:20:11;19.60;;;12.82;;
49858;SDS011;35756;52.346;13.622;2023-05-16T06:22:36;19.38;;;12.45;;
49858;SDS011;35756;52.346;13.622;2023-05-16T06:25:01;18.60;;;13.07;;
49858;SDS011;35756;52.346;13.622;2023-05-16T06:27:27;20.25;;;13.70;;
49858;SDS011;35756;52.346;13.622;2023-05-16T06:29:52;23.45;;;14.00;;
49858;SDS011;35756;52.346;13.622;2023-05-16T06:32:18;20.33;;;14.10;;
49858;SDS011;35756;52.346;13.622;2023-05-16T06:34:43;17.25;;;12.10;;
49858;SDS011;35756;52.346;13.622;2023-05-16T06:37:09;17.73;;;11.85;;
49858;SDS011;35756;52.346;13.622;2023-05-16T06:39:34;24.23;;;12.85;;
49858;SDS011;35756;52.346;13.622;2023-05-16T06:41:59;19.00;;;12.88;;
49858;SDS011;35756;52.346;13.622;2023-05-16T06:44:25;20.20;;;13.13;;
49858;SDS011;35756;52.346;13.622;2023-05-16T06:46:50;18.60;;;11.85;;
49858;SDS011;35756;52.346;13.622;2023-05-16T06:49:16;18.63;;;12.35;;
49858;SDS011;35756;52.346;13.622;2023-05-16T06:51:41;17.95;;;11.77;;
49858;SDS011;35756;52.346;13.622;2023-05-16T06:54:06;20.42;;;11.85;;
49858;SDS011;35756;52.346;13.622;2023-05-16T06:56:32;18.42;;;11.77;;
49858;SDS011;35756;52.346;13.622;2023-05-16T06:58:57;15.57;;;11.68;;
49858;SDS011;35756;52.346;13.622;2023-05-16T07:01:22;16.80;;;11.98;;
49858;SDS011;35756;52.346;13.622;2023-05-16T07:03:47;16.00;;;11.27;;
49858;SDS011;35756;52.346;13.622;2023-05-16T07:06:13;14.15;;;10.45;;
49858;SDS011;35756;52.346;13.622;2023-05-16T07:08:38;11.05;;;9.27;;
49858;SDS011;35756;52.346;13.622;2023-05-16T07:11:03;16.30;;;10.88;;
49858;SDS011;35756;52.346;13.622;2023-05-16T07:13:29;16.15;;;10.85;;
49858;SDS011;35756;52.346;13.622;2023-05-16T07:15:54;14.68;;;9.55;;
49858;SDS011;35756;52.346;13.622;2023-05-16T07:18:19;13.73;;;9.55;;
49858;SDS011;35756;52.346;13.622;2023-05-16T07:20:44;15.35;;;9.73;;
49858;SDS011;35756;52.346;13.622;2023-05-16T07:23:10;13.68;;;9.63;;
49858;SDS011;35756;52.346;13.622;2023-05-16T07:25:36;14.00;;;9.80;;
49858;SDS011;35756;52.346;13.622;2023-05-16T07:28:01;14.48;;;9.20;;
49858;SDS011;35756;52.346;13.622;2023-05-16T07:30:26;12.90;;;8.52;;
49858;SDS011;35756;52.346;13.622;2023-05-16T07:32:52;12.30;;;8.27;;
49858;SDS011;35756;52.346;13.622;2023-05-16T07:35:17;13.95;;;8.10;;
49858;SDS011;35756;52.346;13.622;2023-05-16T07:37:42;13.25;;;8.40;;
49858;SDS011;35756;52.346;13.622;2023-05-16T07:40:08;9.75;;;7.40;;
49858;SDS011;35756;52.346;13.622;2023-05-16T07:42:36;10.80;;;6.93;;
49858;SDS011;35756;52.346;13.622;2023-05-16T07:45:01;11.43;;;6.57;;
49858;SDS011;35756;52.346;13.622;2023-05-16T07:47:26;10.93;;;6.93;;
49858;SDS011;35756;52.346;13.622;2023-05-16T07:49:52;8.77;;;6.15;;
49858;SDS011;35756;52.346;13.622;2023-05-16T07:52:17;9.23;;;6.10;;
49858;SDS011;35756;52.346;13.622;2023-05-16T07:54:44;11.60;;;6.50;;
49858;SDS011;35756;52.346;13.622;2023-05-16T07:57:10;10.82;;;6.45;;
49858;SDS011;35756;52.346;13.622;2023-05-16T07:59:35;8.95;;;5.90;;
49858;SDS011;35756;52.346;13.622;2023-05-16T08:02:00;10.52;;;6.10;;
49858;SDS011;35756;52.346;13.622;2023-05-16T08:04:26;10.75;;;5.53;;
49858;SDS011;35756;52.346;13.622;2023-05-16T08:06:51;7.80;;;5.45;;
49858;SDS011;35756;52.346;13.622;2023-05-16T08:09:16;9.00;;;6.07;;
49858;SDS011;35756;52.346;13.622;2023-05-16T08:11:43;7.18;;;5.28;;
49858;SDS011;35756;52.346;13.622;2023-05-16T08:14:10;9.43;;;5.93;;
49858;SDS011;35756;52.346;13.622;2023-05-16T08:16:35;9.02;;;5.80;;
49858;SDS011;35756;52.346;13.622;2023-05-16T08:19:01;6.95;;;5.30;;
49858;SDS011;35756;52.346;13.622;2023-05-16T08:21:26;7.43;;;5.60;;
49858;SDS011;35756;52.346;13.622;2023-05-16T08:23:51;13.80;;;5.30;;
49858;SDS011;35756;52.346;13.622;2023-05-16T08:26:16;7.90;;;5.13;;
49858;SDS011;35756;52.346;13.622;2023-05-16T08:28:42;9.60;;;5.85;;
49858;SDS011;35756;52.346;13.622;2023-05-16T08:31:07;10.52;;;5.25;;
49858;SDS011;35756;52.346;13.622;2023-05-16T08:33:32;7.03;;;4.60;;
49858;SDS011;35756;52.346;13.622;2023-05-16T08:35:58;7.28;;;4.82;;
49858;SDS011;35756;52.346;13.622;2023-05-16T08:38:24;6.53;;;4.93;;
49858;SDS011;35756;52.346;13.622;2023-05-16T08:40:50;9.00;;;4.75;;
49858;SDS011;35756;52.346;13.622;2023-05-16T08:43:15;6.07;;;4.47;;
49858;SDS011;35756;52.346;13.622;2023-05-16T08:45:40;7.60;;;4.97;;
49858;SDS011;35756;52.346;13.622;2023-05-16T08:48:06;7.13;;;4.25;;
49858;SDS011;35756;52.346;13.622;2023-05-16T08:50:34;7.13;;;4.40;;
49858;SDS011;35756;52.346;13.622;2023-05-16T08:53:01;7.18;;;4.25;;
49858;SDS011;35756;52.346;13.622;2023-05-16T08:55:31;7.03;;;4.40;;
49858;SDS011;35756;52.346;13.622;2023-05-16T08:57:56;7.45;;;4.07;;
49858;SDS011;35756;52.346;13.622;2023-05-16T09:00:22;5.47;;;3.83;;
49858;SDS011;35756;52.346;13.622;2023-05-16T09:02:48;7.57;;;4.40;;
49858;SDS011;35756;52.346;13.622;2023-05-16T09:05:14;8.32;;;4.57;;
49858;SDS011;35756;52.346;13.622;2023-05-16T09:07:40;6.95;;;4.63;;
49858;SDS011;35756;52.346;13.622;2023-05-16T09:10:06;7.28;;;4.50;;
49858;SDS011;35756;52.346;13.622;2023-05-16T09:12:32;7.72;;;4.75;;
49858;SDS011;35756;52.346;13.622;2023-05-16T09:14:59;5.90;;;4.05;;
49858;SDS011;35756;52.346;13.622;2023-05-16T09:17:25;5.70;;;4.68;;
49858;SDS011;35756;52.346;13.622;2023-05-16T09:22:35;5.35;;;3.70;;
49858;SDS011;35756;52.346;13.622;2023-05-16T09:25:01;9.93;;;4.03;;
49858;SDS011;35756;52.346;13.622;2023-05-16T09:27:30;7.15;;;3.95;;
49858;SDS011;35756;52.346;13.622;2023-05-16T09:29:56;7.13;;;4.07;;
49858;SDS011;35756;52.346;13.622;2023-05-16T09:32:22;5.82;;;3.97;;
49858;SDS011;35756;52.346;13.622;2023-05-16T09:34:48;6.50;;;4.22;;
49858;SDS011;35756;52.346;13.622;2023-05-16T09:37:14;6.20;;;4.00;;
49858;SDS011;35756;52.346;13.622;2023-05-16T09:39:44;5.90;;;3.67;;
49858;SDS011;35756;52.346;13.622;2023-05-16T09:42:11;7.13;;;3.67;;
49858;SDS011;35756;52.346;13.622;2023-05-16T09:44:37;8.60;;;4.03;;
49858;SDS011;35756;52.346;13.622;2023-05-16T09:47:03;4.53;;;3.25;;
49858;SDS011;35756;52.346;13.622;2023-05-16T09:49:28;5.05;;;3.10;;
49858;SDS011;35756;52.346;13.622;2023-05-16T09:51:54;8.88;;;3.30;;
49858;SDS011;35756;52.346;13.622;2023-05-16T09:54:32;5.85;;;3.00;;
49858;SDS011;35756;52.346;13.622;2023-05-16T09:56:58;7.63;;;3.28;;
49858;SDS011;35756;52.346;13.622;2023-05-16T09:59:24;4.95;;;3.25;;
49858;SDS011;35756;52.346;13.622;2023-05-16T10:01:50;7.45;;;3.75;;
49858;SDS011;35756;52.346;13.622;2023-05-16T10:04:16;6.25;;;3.70;;
49858;SDS011;35756;52.346;13.622;2023-05-16T10:06:42;4.57;;;3.72;;
49858;SDS011;35756;52.346;13.622;2023-05-16T10:09:11;4.80;;;3.90;;
49858;SDS011;35756;52.346;13.622;2023-05-16T10:11:41;5.55;;;3.50;;
49858;SDS011;35756;52.346;13.622;2023-05-16T10:14:06;6.40;;;3.97;;
49858;SDS011;35756;52.346;13.622;2023-05-16T10:16:33;6.50;;;3.28;;
49858;SDS011;35756;52.346;13.622;2023-05-16T10:18:59;5.55;;;3.65;;
49858;SDS011;35756;52.346;13.622;2023-05-16T10:21:25;6.45;;;3.47;;
49858;SDS011;35756;52.346;13.622;2023-05-16T10:23:52;4.22;;;3.53;;
49858;SDS011;35756;52.346;13.622;2023-05-16T10:26:18;5.72;;;3.30;;
49858;SDS011;35756;52.346;13.622;2023-05-16T10:28:45;6.20;;;3.28;;
49858;SDS011;35756;52.346;13.622;2023-05-16T10:31:11;7.43;;;3.03;;
49858;SDS011;35756;52.346;13.622;2023-05-16T10:33:38;4.18;;;3.30;;
49858;SDS011;35756;52.346;13.622;2023-05-16T10:36:04;4.82;;;2.75;;
49858;SDS011;35756;52.346;13.622;2023-05-16T10:38:29;7.13;;;3.33;;
49858;SDS011;35756;52.346;13.622;2023-05-16T10:40:55;10.68;;;4.00;;
49858;SDS011;35756;52.346;13.622;2023-05-16T10:43:28;10.57;;;5.70;;
49858;SDS011;35756;52.346;13.622;2023-05-16T10:46:07;7.18;;;4.75;;
49858;SDS011;35756;52.346;13.622;2023-05-16T10:48:35;8.55;;;4.03;;
49858;SDS011;35756;52.346;13.622;2023-05-16T10:51:02;6.65;;;3.70;;
49858;SDS011;35756;52.346;13.622;2023-05-16T11:01:16;8.98;;;4.13;;
49858;SDS011;35756;52.346;13.622;2023-05-16T11:06:32;6.40;;;3.30;;
49858;SDS011;35756;52.346;13.622;2023-05-16T11:09:16;6.88;;;3.83;;
49858;SDS011;35756;52.346;13.622;2023-05-16T11:14:19;6.72;;;5.30;;
49858;SDS011;35756;52.346;13.622;2023-05-16T11:17:10;6.28;;;4.88;;
49858;SDS011;35756;52.346;13.622;2023-05-16T11:19:41;6.50;;;4.70;;
49858;SDS011;35756;52.346;13.622;2023-05-16T11:29:51;5.93;;;4.20;;
49858;SDS011;35756;52.346;13.622;2023-05-16T11:32:20;6.75;;;3.80;;
49858;SDS011;35756;52.346;13.622;2023-05-16T11:34:46;6.53;;;3.72;;
49858;SDS011;35756;52.346;13.622;2023-05-16T11:37:12;5.80;;;3.85;;
49858;SDS011;35756;52.346;13.622;2023-05-16T11:39:39;11.35;;;5.80;;
49858;SDS011;35756;52.346;13.622;2023-05-16T11:42:04;6.32;;;3.90;;
49858;SDS011;35756;52.346;13.622;2023-05-16T11:44:30;8.23;;;6.40;;
49858;SDS011;35756;52.346;13.622;2023-05-16T11:46:55;8.02;;;5.13;;
49858;SDS011;35756;52.346;13.622;2023-05-16T11:49:21;8.95;;;6.05;;
49858;SDS011;35756;52.346;13.622;2023-05-16T11:51:46;9.75;;;4.68;;
49858;SDS011;35756;52.346;13.622;2023-05-16T11:54:13;10.40;;;4.50;;
49858;SDS011;35756;52.346;13.622;2023-05-16T11:56:38;8.55;;;6.00;;
49858;SDS011;35756;52.346;13.622;2023-05-16T11:59:05;10.82;;;4.70;;
49858;SDS011;35756;52.346;13.622;2023-05-16T12:01:32;8.07;;;5.68;;
49858;SDS011;35756;52.346;13.622;2023-05-16T12:04:01;11.20;;;5.82;;
49858;SDS011;35756;52.346;13.622;2023-05-16T12:06:31;4.93;;;4.38;;
49858;SDS011;35756;52.346;13.622;2023-05-16T12:08:57;8.40;;;3.90;;
49858;SDS011;35756;52.346;13.622;2023-05-16T12:11:22;5.93;;;3.50;;
49858;SDS011;35756;52.346;13.622;2023-05-16T12:13:48;4.60;;;3.10;;
49858;SDS011;35756;52.346;13.622;2023-05-16T12:16:13;8.35;;;3.22;;
49858;SDS011;35756;52.346;13.622;2023-05-16T12:18:40;8.68;;;3.70;;
49858;SDS011;35756;52.346;13.622;2023-05-16T12:21:05;8.95;;;3.03;;
49858;SDS011;35756;52.346;13.622;2023-05-16T12:23:34;8.20;;;3.13;;
49858;SDS011;35756;52.346;13.622;2023-05-16T12:25:59;8.07;;;3.60;;
49858;SDS011;35756;52.346;13.622;2023-05-16T12:28:31;4.20;;;3.10;;
49858;SDS011;35756;52.346;13.622;2023-05-16T12:30:58;9.88;;;3.17;;
49858;SDS011;35756;52.346;13.622;2023-05-16T12:33:23;7.63;;;2.80;;
49858;SDS011;35756;52.346;13.622;2023-05-16T12:35:49;7.88;;;2.72;;
49858;SDS011;35756;52.346;13.622;2023-05-16T12:38:16;7.63;;;2.88;;
49858;SDS011;35756;52.346;13.622;2023-05-16T12:40:43;7.90;;;3.10;;
49858;SDS011;35756;52.346;13.622;2023-05-16T12:43:12;7.43;;;3.20;;
49858;SDS011;35756;52.346;13.622;2023-05-16T12:45:38;5.88;;;3.10;;
49858;SDS011;35756;52.346;13.622;2023-05-16T12:48:04;7.95;;;3.33;;
49858;SDS011;35756;52.346;13.622;2023-05-16T12:50:30;6.35;;;3.15;;
49858;SDS011;35756;52.346;13.622;2023-05-16T12:52:57;9.27;;;3.97;;
49858;SDS011;35756;52.346;13.622;2023-05-16T12:55:23;8.13;;;3.47;;
49858;SDS011;35756;52.346;13.622;2023-05-16T12:57:49;9.07;;;2.78;;
49858;SDS011;35756;52.346;13.622;2023-05-16T13:00:15;6.57;;;2.90;;
49858;SDS011;35756;52.346;13.622;2023-05-16T13:02:45;8.75;;;3.28;;
49858;SDS011;35756;52.346;13.622;2023-05-16T13:05:11;7.63;;;2.80;;
49858;SDS011;35756;52.346;13.622;2023-05-16T13:07:36;6.25;;;2.55;;
49858;SDS011;35756;52.346;13.622;2023-05-16T13:10:04;8.30;;;3.05;;
49858;SDS011;35756;52.346;13.622;2023-05-16T13:12:36;7.88;;;2.90;;
49858;SDS011;35756;52.346;13.622;2023-05-16T13:15:02;9.32;;;2.72;;
49858;SDS011;35756;52.346;13.622;2023-05-16T13:17:28;7.80;;;3.60;;
49858;SDS011;35756;52.346;13.622;2023-05-16T13:19:54;9.98;;;2.92;;
49858;SDS011;35756;52.346;13.622;2023-05-16T13:22:19;8.50;;;2.45;;
49858;SDS011;35756;52.346;13.622;2023-05-16T13:24:45;5.07;;;2.10;;
49858;SDS011;35756;52.346;13.622;2023-05-16T13:27:10;5.63;;;2.53;;
49858;SDS011;35756;52.346;13.622;2023-05-16T13:29:35;7.93;;;2.90;;
49858;SDS011;35756;52.346;13.622;2023-05-16T13:32:01;10.05;;;3.05;;
49858;SDS011;35756;52.346;13.622;2023-05-16T13:34:26;8.48;;;2.53;;
49858;SDS011;35756;52.346;13.622;2023-05-16T13:36:51;7.80;;;1.98;;
49858;SDS011;35756;52.346;13.622;2023-05-16T13:39:16;7.03;;;2.30;;
49858;SDS011;35756;52.346;13.622;2023-05-16T13:41:42;8.50;;;2.20;;
49858;SDS011;35756;52.346;13.622;2023-05-16T13:44:07;6.15;;;2.10;;
49858;SDS011;35756;52.346;13.622;2023-05-16T13:46:33;6.53;;;2.00;;
49858;SDS011;35756;52.346;13.622;2023-05-16T13:48:58;6.05;;;2.17;;
49858;SDS011;35756;52.346;13.622;2023-05-16T13:51:24;10.75;;;2.75;;
49858;SDS011;35756;52.346;13.622;2023-05-16T13:53:49;7.72;;;2.20;;
49858;SDS011;35756;52.346;13.622;2023-05-16T13:56:14;5.25;;;2.33;;
49858;SDS011;35756;52.346;13.622;2023-05-16T13:58:40;10.20;;;2.60;;
49858;SDS011;35756;52.346;13.622;2023-05-16T14:01:05;7.38;;;1.88;;
49858;SDS011;35756;52.346;13.622;2023-05-16T14:03:31;9.05;;;2.00;;
49858;SDS011;35756;52.346;13.622;2023-05-16T14:05:56;7.18;;;2.13;;
49858;SDS011;35756;52.346;13.622;2023-05-16T14:08:21;7.75;;;2.10;;
49858;SDS011;35756;52.346;13.622;2023-05-16T14:10:47;7.78;;;2.30;;
49858;SDS011;35756;52.346;13.622;2023-05-16T14:13:12;8.60;;;2.33;;
49858;SDS011;35756;52.346;13.622;2023-05-16T14:15:37;7.88;;;2.20;;
49858;SDS011;35756;52.346;13.622;2023-05-16T14:18:03;6.65;;;1.95;;
49858;SDS011;35756;52.346;13.622;2023-05-16T14:20:28;8.07;;;2.25;;
49858;SDS011;35756;52.346;13.622;2023-05-16T14:22:54;7.72;;;2.47;;
49858;SDS011;35756;52.346;13.622;2023-05-16T14:25:19;6.65;;;1.95;;
49858;SDS011;35756;52.346;13.622;2023-05-16T14:27:44;7.18;;;1.88;;
49858;SDS011;35756;52.346;13.622;2023-05-16T14:30:10;3.55;;;1.88;;
49858;SDS011;35756;52.346;13.622;2023-05-16T14:32:35;8.05;;;2.00;;
49858;SDS011;35756;52.346;13.622;2023-05-16T14:35:01;4.45;;;1.65;;
49858;SDS011;35756;52.346;13.622;2023-05-16T14:37:29;4.55;;;1.55;;
49858;SDS011;35756;52.346;13.622;2023-05-16T14:39:54;7.13;;;1.83;;
49858;SDS011;35756;52.346;13.622;2023-05-16T14:42:21;5.75;;;2.00;;
49858;SDS011;35756;52.346;13.622;2023-05-16T14:44:46;10.35;;;2.30;;